sensor_id;sensor_type;location;lat;lon;timestamp;pressure;altitude;pressure_sealevel;temperature;humidity
55066;BME280;40964;42.114;24.220;2023-08-12T00:00:16;98208.50;;;20.02;62.53
55066;BME280;40964;42.114;24.220;2023-08-12T00:02:44;98215.44;;;20.03;62.04
55066;BME280;40964;42.114;24.220;2023-08-12T00:05:10;98211.44;;;20.00;62.03
55066;BME280;40964;42.114;24.220;2023-08-12T00:07:40;98215.19;;;19.99;62.38
55066;BME280;40964;42.114;24.220;2023-08-12T00:10:07;98217.56;;;20.01;62.00
55066;BME280;40964;42.114;24.220;2023-08-12T00:12:33;98219.44;;;20.00;61.88
55066;BME280;40964;42.114;24.220;2023-08-12T00:15:00;98220.50;;;19.99;61.76
55066;BME280;40964;42.114;24.220;2023-08-12T00:17:26;98222.91;;;19.91;62.38
55066;BME280;40964;42.114;24.220;2023-08-12T00:19:51;98224.47;;;19.66;65.22
55066;BME280;40964;42.114;24.220;2023-08-12T00:22:17;98213.81;;;19.61;65.64
55066;BME280;40964;42.114;24.220;2023-08-12T00:24:42;98216.47;;;19.61;64.77
55066;BME280;40964;42.114;24.220;2023-08-12T00:27:08;98218.06;;;19.62;63.80
55066;BME280;40964;42.114;24.220;2023-08-12T00:29:34;98210.06;;;19.57;64.61
55066;BME280;40964;42.114;24.220;2023-08-12T00:32:00;98218.28;;;19.55;64.83
55066;BME280;40964;42.114;24.220;2023-08-12T00:34:26;98216.75;;;19.60;64.02
55066;BME280;40964;42.114;24.220;2023-08-12T00:36:51;98213.00;;;19.61;63.73
55066;BME280;40964;42.114;24.220;2023-08-12T00:39:16;98216.47;;;19.61;63.73
55066;BME280;40964;42.114;24.220;2023-08-12T00:41:42;98209.28;;;19.62;63.78
55066;BME280;40964;42.114;24.220;2023-08-12T00:44:07;98202.34;;;19.61;63.27
55066;BME280;40964;42.114;24.220;2023-08-12T00:46:34;98202.03;;;19.57;62.94
55066;BME280;40964;42.114;24.220;2023-08-12T00:49:00;98208.16;;;19.52;63.30
55066;BME280;40964;42.114;24.220;2023-08-12T00:51:25;98208.66;;;19.44;63.60
55066;BME280;40964;42.114;24.220;2023-08-12T00:53:51;98211.81;;;19.31;65.07
55066;BME280;40964;42.114;24.220;2023-08-12T00:56:17;98184.63;;;19.24;65.57
55066;BME280;40964;42.114;24.220;2023-08-12T00:58:43;98197.19;;;19.34;65.16
55066;BME280;40964;42.114;24.220;2023-08-12T01:01:10;98196.09;;;19.29;65.23
55066;BME280;40964;42.114;24.220;2023-08-12T01:03:36;98193.16;;;19.31;65.36
55066;BME280;40964;42.114;24.220;2023-08-12T01:06:02;98179.03;;;19.25;64.62
55066;BME280;40964;42.114;24.220;2023-08-12T01:08:30;98198.25;;;19.33;64.37
55066;BME280;40964;42.114;24.220;2023-08-12T01:11:06;98188.88;;;19.30;64.69
55066;BME280;40964;42.114;24.220;2023-08-12T01:13:57;98187.56;;;19.27;64.04
55066;BME280;40964;42.114;24.220;2023-08-12T01:16:26;98186.22;;;19.25;63.55
55066;BME280;40964;42.114;24.220;2023-08-12T01:18:55;98186.22;;;19.25;63.91
55066;BME280;40964;42.114;24.220;2023-08-12T01:21:24;98187.25;;;19.19;64.50
55066;BME280;40964;42.114;24.220;2023-08-12T01:23:50;98162.94;;;19.00;64.98
55066;BME280;40964;42.114;24.220;2023-08-12T01:26:15;98185.91;;;19.06;65.44
55066;BME280;40964;42.114;24.220;2023-08-12T01:28:41;98193.63;;;19.08;65.41
55066;BME280;40964;42.114;24.220;2023-08-12T01:31:17;98193.41;;;19.14;64.73
55066;BME280;40964;42.114;24.220;2023-08-12T01:33:55;98187.50;;;19.12;64.83
55066;BME280;40964;42.114;24.220;2023-08-12T01:36:24;98192.84;;;19.12;64.54
55066;BME280;40964;42.114;24.220;2023-08-12T01:38:51;98186.16;;;19.10;64.65
55066;BME280;40964;42.114;24.220;2023-08-12T01:41:18;98188.31;;;19.13;64.46
55066;BME280;40964;42.114;24.220;2023-08-12T01:43:46;98189.41;;;19.17;63.86
55066;BME280;40964;42.114;24.220;2023-08-12T01:46:11;98189.41;;;19.17;64.26
55066;BME280;40964;42.114;24.220;2023-08-12T01:48:37;98193.94;;;19.16;64.51
55066;BME280;40964;42.114;24.220;2023-08-12T01:51:02;98195.22;;;19.14;65.06
55066;BME280;40964;42.114;24.220;2023-08-12T01:53:28;98191.22;;;19.11;64.53
55066;BME280;40964;42.114;24.220;2023-08-12T01:55:53;98193.09;;;19.11;64.17
55066;BME280;40964;42.114;24.220;2023-08-12T01:58:19;98196.56;;;19.11;64.87
55066;BME280;40964;42.114;24.220;2023-08-12T02:00:45;98205.41;;;19.17;64.83
55066;BME280;40964;42.114;24.220;2023-08-12T02:03:10;98207.25;;;19.16;64.59
55066;BME280;40964;42.114;24.220;2023-08-12T02:05:36;98203.00;;;19.15;64.13
55066;BME280;40964;42.114;24.220;2023-08-12T02:08:05;98206.44;;;19.11;65.00
55066;BME280;40964;42.114;24.220;2023-08-12T02:10:31;98206.47;;;19.16;64.89
55066;BME280;40964;42.114;24.220;2023-08-12T02:12:56;98212.31;;;19.18;63.98
55066;BME280;40964;42.114;24.220;2023-08-12T02:15:22;98207.25;;;19.21;64.33
55066;BME280;40964;42.114;24.220;2023-08-12T02:17:47;98206.72;;;19.19;63.98
55066;BME280;40964;42.114;24.220;2023-08-12T02:20:12;98206.72;;;19.19;64.06
55066;BME280;40964;42.114;24.220;2023-08-12T02:22:38;98212.56;;;19.11;64.42
55066;BME280;40964;42.114;24.220;2023-08-12T02:25:04;98208.03;;;19.07;64.91
55066;BME280;40964;42.114;24.220;2023-08-12T02:27:29;98217.84;;;19.01;64.78
55066;BME280;40964;42.114;24.220;2023-08-12T02:29:55;98209.31;;;18.99;65.08
55066;BME280;40964;42.114;24.220;2023-08-12T02:32:20;98205.03;;;18.88;65.18
55066;BME280;40964;42.114;24.220;2023-08-12T02:34:46;98210.88;;;18.95;65.55
55066;BME280;40964;42.114;24.220;2023-08-12T02:37:11;98207.16;;;18.91;65.42
55066;BME280;40964;42.114;24.220;2023-08-12T02:39:38;98207.13;;;18.86;65.83
55066;BME280;40964;42.114;24.220;2023-08-12T02:42:03;98216.72;;;18.82;66.48
55066;BME280;40964;42.114;24.220;2023-08-12T02:44:29;98222.78;;;18.77;65.73
55066;BME280;40964;42.114;24.220;2023-08-12T02:46:54;98221.75;;;18.78;65.91
55066;BME280;40964;42.114;24.220;2023-08-12T02:49:20;98226.78;;;18.75;66.34
55066;BME280;40964;42.114;24.220;2023-08-12T02:51:45;98224.66;;;18.71;65.77
55066;BME280;40964;42.114;24.220;2023-08-12T02:54:10;98238.47;;;18.68;66.69
55066;BME280;40964;42.114;24.220;2023-08-12T02:56:36;98236.06;;;18.67;66.78
55066;BME280;40964;42.114;24.220;2023-08-12T02:59:01;98232.56;;;18.61;67.12
55066;BME280;40964;42.114;24.220;2023-08-12T03:01:27;98240.72;;;18.50;66.94
55066;BME280;40964;42.114;24.220;2023-08-12T03:03:53;98210.22;;;18.30;67.09
55066;BME280;40964;42.114;24.220;2023-08-12T03:06:18;98240.91;;;18.38;67.89
55066;BME280;40964;42.114;24.220;2023-08-12T03:08:43;98237.72;;;18.36;68.52
55066;BME280;40964;42.114;24.220;2023-08-12T03:11:09;98237.44;;;18.37;68.36
55066;BME280;40964;42.114;24.220;2023-08-12T03:13:34;98238.31;;;18.43;68.14
55066;BME280;40964;42.114;24.220;2023-08-12T03:16:00;98239.38;;;18.47;68.04
55066;BME280;40964;42.114;24.220;2023-08-12T03:18:26;98237.56;;;18.53;67.83
55066;BME280;40964;42.114;24.220;2023-08-12T03:20:51;98239.97;;;18.54;67.04
55066;BME280;40964;42.114;24.220;2023-08-12T03:23:17;98232.44;;;18.46;67.85
55066;BME280;40964;42.114;24.220;2023-08-12T03:25:42;98231.28;;;18.32;68.56
55066;BME280;40964;42.114;24.220;2023-08-12T03:28:08;98228.06;;;18.30;68.89
55066;BME280;40964;42.114;24.220;2023-08-12T03:30:33;98234.72;;;18.27;68.83
55066;BME280;40964;42.114;24.220;2023-08-12T03:32:59;98232.84;;;18.28;68.98
55066;BME280;40964;42.114;24.220;2023-08-12T03:35:24;98239.78;;;18.29;69.09
55066;BME280;40964;42.114;24.220;2023-08-12T03:37:50;98239.72;;;18.24;68.48
55066;BME280;40964;42.114;24.220;2023-08-12T03:40:17;98237.59;;;18.21;69.03
55066;BME280;40964;42.114;24.220;2023-08-12T03:42:43;98250.38;;;18.19;69.79
55066;BME280;40964;42.114;24.220;2023-08-12T03:45:08;98241.84;;;18.22;69.60
55066;BME280;40964;42.114;24.220;2023-08-12T03:47:34;98248.84;;;18.28;69.25
55066;BME280;40964;42.114;24.220;2023-08-12T03:49:59;98241.13;;;18.31;69.17
55066;BME280;40964;42.114;24.220;2023-08-12T03:52:25;98248.09;;;18.37;68.91
55066;BME280;40964;42.114;24.220;2023-08-12T03:54:50;98245.19;;;18.39;68.67
55066;BME280;40964;42.114;24.220;2023-08-12T03:57:15;98254.28;;;18.43;68.57
55066;BME280;40964;42.114;24.220;2023-08-12T03:59:41;98243.06;;;18.41;68.27
55066;BME280;40964;42.114;24.220;2023-08-12T04:02:06;98252.41;;;18.43;68.09
55066;BME280;40964;42.114;24.220;2023-08-12T04:04:32;98246.84;;;18.45;68.69
55066;BME280;40964;42.114;24.220;2023-08-12T04:06:57;98251.38;;;18.50;68.65
55066;BME280;40964;42.114;24.220;2023-08-12T04:09:23;98238.63;;;18.52;68.79
55066;BME280;40964;42.114;24.220;2023-08-12T04:11:48;98245.09;;;19.08;67.70
55066;BME280;40964;42.114;24.220;2023-08-12T04:14:14;98245.53;;;19.58;66.11
55066;BME280;40964;42.114;24.220;2023-08-12T04:16:40;98238.94;;;19.80;64.54
55066;BME280;40964;42.114;24.220;2023-08-12T04:19:05;98252.31;;;20.31;63.77
55066;BME280;40964;42.114;24.220;2023-08-12T04:21:31;98247.16;;;20.81;62.34
55066;BME280;40964;42.114;24.220;2023-08-12T04:23:56;98251.84;;;21.30;61.03
55066;BME280;40964;42.114;24.220;2023-08-12T04:26:21;98241.72;;;21.71;59.26
55066;BME280;40964;42.114;24.220;2023-08-12T04:28:47;98231.00;;;22.10;58.23
55066;BME280;40964;42.114;24.220;2023-08-12T04:31:13;98239.50;;;22.51;56.51
55066;BME280;40964;42.114;24.220;2023-08-12T04:33:38;98228.44;;;22.87;55.34
55066;BME280;40964;42.114;24.220;2023-08-12T04:36:04;98230.19;;;23.20;54.84
55066;BME280;40964;42.114;24.220;2023-08-12T04:38:30;98223.56;;;23.56;53.66
55066;BME280;40964;42.114;24.220;2023-08-12T04:40:57;98234.09;;;23.90;53.51
55066;BME280;40964;42.114;24.220;2023-08-12T04:43:22;98241.19;;;24.18;52.95
55066;BME280;40964;42.114;24.220;2023-08-12T04:45:48;98238.88;;;24.44;53.19
55066;BME280;40964;42.114;24.220;2023-08-12T04:48:14;98234.25;;;24.63;52.68
55066;BME280;40964;42.114;24.220;2023-08-12T04:50:41;98236.25;;;24.72;51.54
55066;BME280;40964;42.114;24.220;2023-08-12T04:53:07;98235.03;;;24.64;52.67
55066;BME280;40964;42.114;24.220;2023-08-12T04:55:34;98236.50;;;24.70;52.18
55066;BME280;40964;42.114;24.220;2023-08-12T04:57:59;98237.03;;;24.72;52.44
55066;BME280;40964;42.114;24.220;2023-08-12T05:00:25;98237.53;;;24.74;53.53
55066;BME280;40964;42.114;24.220;2023-08-12T05:02:51;98243.13;;;24.91;53.53
55066;BME280;40964;42.114;24.220;2023-08-12T05:05:16;98245.22;;;24.95;51.37
55066;BME280;40964;42.114;24.220;2023-08-12T05:07:42;98242.03;;;24.92;50.92
55066;BME280;40964;42.114;24.220;2023-08-12T05:10:09;98249.81;;;24.80;51.35
55066;BME280;40964;42.114;24.220;2023-08-12T05:12:34;98248.47;;;24.64;51.62
55066;BME280;40964;42.114;24.220;2023-08-12T05:15:00;98250.88;;;24.33;51.40
55066;BME280;40964;42.114;24.220;2023-08-12T05:17:26;98261.19;;;23.93;53.67
55066;BME280;40964;42.114;24.220;2023-08-12T05:19:51;98249.25;;;23.62;54.55
55066;BME280;40964;42.114;24.220;2023-08-12T05:22:16;98252.34;;;23.50;56.13
55066;BME280;40964;42.114;24.220;2023-08-12T05:24:42;98258.97;;;23.39;56.17
55066;BME280;40964;42.114;24.220;2023-08-12T05:27:07;98259.16;;;23.42;56.77
55066;BME280;40964;42.114;24.220;2023-08-12T05:29:33;98254.91;;;23.17;57.60
55066;BME280;40964;42.114;24.220;2023-08-12T05:31:58;98258.47;;;23.13;58.58
55066;BME280;40964;42.114;24.220;2023-08-12T05:34:24;98255.16;;;23.21;59.47
55066;BME280;40964;42.114;24.220;2023-08-12T05:36:49;98256.50;;;23.18;57.10
55066;BME280;40964;42.114;24.220;2023-08-12T05:39:15;98260.97;;;23.04;55.39
55066;BME280;40964;42.114;24.220;2023-08-12T05:41:43;98265.31;;;23.00;54.38
55066;BME280;40964;42.114;24.220;2023-08-12T05:44:10;98263.25;;;23.16;54.02
55066;BME280;40964;42.114;24.220;2023-08-12T05:46:35;98262.16;;;23.17;53.67
55066;BME280;40964;42.114;24.220;2023-08-12T05:49:00;98258.94;;;23.20;54.33
55066;BME280;40964;42.114;24.220;2023-08-12T05:51:26;98260.03;;;23.38;53.80
55066;BME280;40964;42.114;24.220;2023-08-12T05:53:51;98261.16;;;23.56;53.98
55066;BME280;40964;42.114;24.220;2023-08-12T05:56:17;98253.00;;;23.66;52.84
55066;BME280;40964;42.114;24.220;2023-08-12T05:58:42;98257.25;;;23.86;51.40
55066;BME280;40964;42.114;24.220;2023-08-12T06:01:07;98240.94;;;24.15;51.85
55066;BME280;40964;42.114;24.220;2023-08-12T06:03:33;98245.34;;;24.43;50.33
55066;BME280;40964;42.114;24.220;2023-08-12T06:05:58;98248.03;;;24.43;50.02
55066;BME280;40964;42.114;24.220;2023-08-12T06:08:24;98243.00;;;24.55;49.40
55066;BME280;40964;42.114;24.220;2023-08-12T06:10:49;98242.00;;;24.65;50.45
55066;BME280;40964;42.114;24.220;2023-08-12T06:13:15;98244.22;;;24.90;49.44
55066;BME280;40964;42.114;24.220;2023-08-12T06:15:40;98241.91;;;24.98;48.54
55066;BME280;40964;42.114;24.220;2023-08-12T06:18:06;98240.03;;;24.84;48.34
55066;BME280;40964;42.114;24.220;2023-08-12T06:20:31;98237.44;;;25.07;48.50
55066;BME280;40964;42.114;24.220;2023-08-12T06:22:56;98241.75;;;25.22;46.51
55066;BME280;40964;42.114;24.220;2023-08-12T06:25:22;98235.56;;;25.35;47.48
55066;BME280;40964;42.114;24.220;2023-08-12T06:27:48;98229.78;;;25.28;48.10
55066;BME280;40964;42.114;24.220;2023-08-12T06:30:13;98236.94;;;25.46;47.81
55066;BME280;40964;42.114;24.220;2023-08-12T06:32:39;98224.28;;;25.69;47.87
55066;BME280;40964;42.114;24.220;2023-08-12T06:35:05;98230.47;;;25.83;47.65
55066;BME280;40964;42.114;24.220;2023-08-12T06:37:31;98231.25;;;25.84;46.13
55066;BME280;40964;42.114;24.220;2023-08-12T06:39:56;98246.69;;;25.56;46.89
55066;BME280;40964;42.114;24.220;2023-08-12T06:42:22;98236.56;;;25.75;46.90
55066;BME280;40964;42.114;24.220;2023-08-12T06:44:55;98253.38;;;25.94;46.04
55066;BME280;40964;42.114;24.220;2023-08-12T06:47:20;98240.38;;;25.96;44.04
55066;BME280;40964;42.114;24.220;2023-08-12T06:49:46;98248.41;;;25.88;43.82
55066;BME280;40964;42.114;24.220;2023-08-12T06:52:11;98249.09;;;26.16;43.10
55066;BME280;40964;42.114;24.220;2023-08-12T06:54:37;98239.03;;;26.52;43.12
55066;BME280;40964;42.114;24.220;2023-08-12T06:57:02;98244.38;;;26.75;43.89
55066;BME280;40964;42.114;24.220;2023-08-12T06:59:28;98241.78;;;27.01;42.37
55066;BME280;40964;42.114;24.220;2023-08-12T07:01:53;98235.81;;;27.21;42.50
55066;BME280;40964;42.114;24.220;2023-08-12T07:04:19;98236.47;;;27.27;41.33
55066;BME280;40964;42.114;24.220;2023-08-12T07:06:44;98233.69;;;27.66;41.52
55066;BME280;40964;42.114;24.220;2023-08-12T07:09:10;98233.22;;;28.08;40.36
55066;BME280;40964;42.114;24.220;2023-08-12T07:11:35;98232.88;;;28.09;40.13
55066;BME280;40964;42.114;24.220;2023-08-12T07:14:00;98229.41;;;28.00;39.95
55066;BME280;40964;42.114;24.220;2023-08-12T07:16:26;98230.03;;;27.97;39.93
55066;BME280;40964;42.114;24.220;2023-08-12T07:18:51;98229.88;;;27.93;41.37
55066;BME280;40964;42.114;24.220;2023-08-12T07:21:17;98230.31;;;28.21;39.20
55066;BME280;40964;42.114;24.220;2023-08-12T07:23:42;98231.34;;;28.64;38.38
55066;BME280;40964;42.114;24.220;2023-08-12T07:26:08;98223.66;;;28.74;42.21
55066;BME280;40964;42.114;24.220;2023-08-12T07:28:33;98226.34;;;28.83;38.04
55066;BME280;40964;42.114;24.220;2023-08-12T07:31:01;98219.84;;;29.14;39.41
55066;BME280;40964;42.114;24.220;2023-08-12T07:33:26;98217.94;;;29.14;38.80
55066;BME280;40964;42.114;24.220;2023-08-12T07:35:52;98224.44;;;29.43;38.62
55066;BME280;40964;42.114;24.220;2023-08-12T07:38:17;98215.75;;;29.58;38.36
55066;BME280;40964;42.114;24.220;2023-08-12T07:40:43;98218.53;;;29.49;37.57
55066;BME280;40964;42.114;24.220;2023-08-12T07:43:09;98221.91;;;29.37;36.76
55066;BME280;40964;42.114;24.220;2023-08-12T07:45:34;98210.94;;;29.13;36.74
55066;BME280;40964;42.114;24.220;2023-08-12T07:47:59;98211.69;;;29.43;37.07
55066;BME280;40964;42.114;24.220;2023-08-12T07:50:25;98213.84;;;29.58;37.51
55066;BME280;40964;42.114;24.220;2023-08-12T07:52:50;98206.75;;;29.87;37.97
55066;BME280;40964;42.114;24.220;2023-08-12T07:55:17;98209.50;;;30.20;37.04
55066;BME280;40964;42.114;24.220;2023-08-12T07:57:44;98202.75;;;30.05;34.71
55066;BME280;40964;42.114;24.220;2023-08-12T08:00:10;98197.16;;;29.89;35.94
55066;BME280;40964;42.114;24.220;2023-08-12T08:02:37;98204.09;;;29.78;34.97
55066;BME280;40964;42.114;24.220;2023-08-12T08:05:04;98201.69;;;29.98;35.45
55066;BME280;40964;42.114;24.220;2023-08-12T08:07:29;98201.84;;;29.80;35.96
55066;BME280;40964;42.114;24.220;2023-08-12T08:09:55;98193.09;;;30.16;35.58
55066;BME280;40964;42.114;24.220;2023-08-12T08:12:20;98192.09;;;30.33;36.44
55066;BME280;40964;42.114;24.220;2023-08-12T08:14:46;98195.00;;;30.73;34.50
55066;BME280;40964;42.114;24.220;2023-08-12T08:17:11;98195.47;;;30.88;34.97
55066;BME280;40964;42.114;24.220;2023-08-12T08:19:37;98181.50;;;30.52;33.70
55066;BME280;40964;42.114;24.220;2023-08-12T08:22:02;98194.41;;;30.56;34.94
55066;BME280;40964;42.114;24.220;2023-08-12T08:24:28;98200.50;;;30.52;35.24
55066;BME280;40964;42.114;24.220;2023-08-12T08:26:54;98196.53;;;30.50;35.57
55066;BME280;40964;42.114;24.220;2023-08-12T08:29:19;98191.66;;;30.43;36.38
55066;BME280;40964;42.114;24.220;2023-08-12T08:31:45;98194.28;;;30.40;34.67
55066;BME280;40964;42.114;24.220;2023-08-12T08:34:10;98192.69;;;30.39;32.90
55066;BME280;40964;42.114;24.220;2023-08-12T08:36:36;98188.44;;;30.17;34.96
55066;BME280;40964;42.114;24.220;2023-08-12T08:39:01;98194.22;;;30.15;33.60
55066;BME280;40964;42.114;24.220;2023-08-12T08:41:30;98196.34;;;29.89;34.51
55066;BME280;40964;42.114;24.220;2023-08-12T08:44:01;98193.47;;;29.73;33.16
55066;BME280;40964;42.114;24.220;2023-08-12T08:46:28;98187.41;;;30.09;32.73
55066;BME280;40964;42.114;24.220;2023-08-12T08:48:55;98196.34;;;30.10;33.47
55066;BME280;40964;42.114;24.220;2023-08-12T08:51:24;98184.41;;;30.23;33.09
55066;BME280;40964;42.114;24.220;2023-08-12T08:53:53;98180.94;;;30.59;32.61
55066;BME280;40964;42.114;24.220;2023-08-12T08:56:20;98176.88;;;30.53;33.77
55066;BME280;40964;42.114;24.220;2023-08-12T08:58:46;98172.22;;;30.41;31.09
55066;BME280;40964;42.114;24.220;2023-08-12T09:01:11;98184.34;;;30.56;32.23
55066;BME280;40964;42.114;24.220;2023-08-12T09:03:38;98176.22;;;30.68;31.34
55066;BME280;40964;42.114;24.220;2023-08-12T09:06:04;98167.03;;;30.97;30.25
55066;BME280;40964;42.114;24.220;2023-08-12T09:08:31;98163.38;;;31.42;34.15
55066;BME280;40964;42.114;24.220;2023-08-12T09:10:59;98159.47;;;31.55;32.23
55066;BME280;40964;42.114;24.220;2023-08-12T09:13:25;98161.44;;;31.71;31.71
55066;BME280;40964;42.114;24.220;2023-08-12T09:15:51;98160.09;;;31.77;30.51
55066;BME280;40964;42.114;24.220;2023-08-12T09:18:17;98156.00;;;31.99;33.75
55066;BME280;40964;42.114;24.220;2023-08-12T09:20:43;98153.56;;;31.94;29.88
55066;BME280;40964;42.114;24.220;2023-08-12T09:23:09;98146.66;;;31.28;29.89
55066;BME280;40964;42.114;24.220;2023-08-12T09:25:44;98139.63;;;31.27;29.92
55066;BME280;40964;42.114;24.220;2023-08-12T09:28:11;98139.91;;;31.50;31.35
55066;BME280;40964;42.114;24.220;2023-08-12T09:30:37;98140.47;;;31.43;31.37
55066;BME280;40964;42.114;24.220;2023-08-12T09:33:05;98135.19;;;31.62;30.10
55066;BME280;40964;42.114;24.220;2023-08-12T09:35:37;98137.44;;;31.73;33.69
55066;BME280;40964;42.114;24.220;2023-08-12T09:38:03;98140.13;;;31.45;29.73
55066;BME280;40964;42.114;24.220;2023-08-12T09:40:31;98129.88;;;31.38;30.43
55066;BME280;40964;42.114;24.220;2023-08-12T09:42:57;98131.13;;;31.16;31.71
55066;BME280;40964;42.114;24.220;2023-08-12T09:45:24;98130.34;;;31.16;30.35
55066;BME280;40964;42.114;24.220;2023-08-12T09:47:50;98127.63;;;31.28;30.72
55066;BME280;40964;42.114;24.220;2023-08-12T09:50:15;98132.03;;;31.20;31.86
55066;BME280;40964;42.114;24.220;2023-08-12T09:52:41;98121.59;;;31.34;32.52
55066;BME280;40964;42.114;24.220;2023-08-12T09:55:08;98124.06;;;31.40;30.71
55066;BME280;40964;42.114;24.220;2023-08-12T09:57:35;98120.13;;;31.37;30.39
55066;BME280;40964;42.114;24.220;2023-08-12T10:00:03;98123.00;;;31.04;30.83
55066;BME280;40964;42.114;24.220;2023-08-12T10:02:29;98120.38;;;31.20;31.23
55066;BME280;40964;42.114;24.220;2023-08-12T10:04:56;98116.94;;;31.35;30.85
55066;BME280;40964;42.114;24.220;2023-08-12T10:07:23;98118.88;;;31.34;30.65
55066;BME280;40964;42.114;24.220;2023-08-12T10:09:48;98097.59;;;31.37;30.76
55066;BME280;40964;42.114;24.220;2023-08-12T10:12:15;98104.91;;;31.48;32.35
55066;BME280;40964;42.114;24.220;2023-08-12T10:14:40;98092.72;;;31.58;31.16
55066;BME280;40964;42.114;24.220;2023-08-12T10:17:07;98103.75;;;31.49;30.75
55066;BME280;40964;42.114;24.220;2023-08-12T10:19:35;98099.53;;;31.24;31.69
55066;BME280;40964;42.114;24.220;2023-08-12T10:22:03;98105.78;;;31.24;30.60
55066;BME280;40964;42.114;24.220;2023-08-12T10:24:29;98110.72;;;31.34;32.03
55066;BME280;40964;42.114;24.220;2023-08-12T10:26:55;98112.72;;;30.97;31.58
55066;BME280;40964;42.114;24.220;2023-08-12T10:29:23;98100.56;;;31.07;31.31
55066;BME280;40964;42.114;24.220;2023-08-12T10:31:49;98096.59;;;31.29;30.92
55066;BME280;40964;42.114;24.220;2023-08-12T10:34:22;98098.00;;;30.98;31.36
55066;BME280;40964;42.114;24.220;2023-08-12T10:36:48;98087.00;;;31.07;32.12
55066;BME280;40964;42.114;24.220;2023-08-12T10:39:18;98084.72;;;31.09;30.01
55066;BME280;40964;42.114;24.220;2023-08-12T10:41:50;98087.56;;;31.13;31.49
55066;BME280;40964;42.114;24.220;2023-08-12T10:44:20;98084.03;;;31.24;28.89
55066;BME280;40964;42.114;24.220;2023-08-12T10:46:52;98075.22;;;31.43;30.56
55066;BME280;40964;42.114;24.220;2023-08-12T10:49:21;98081.06;;;31.57;30.26
55066;BME280;40964;42.114;24.220;2023-08-12T10:51:53;98075.06;;;31.80;29.72
55066;BME280;40964;42.114;24.220;2023-08-12T11:04:57;98057.44;;;32.53;30.93
55066;BME280;40964;42.114;24.220;2023-08-12T11:07:43;98063.06;;;32.79;29.24
55066;BME280;40964;42.114;24.220;2023-08-12T11:10:14;98062.16;;;33.26;28.33
55066;BME280;40964;42.114;24.220;2023-08-12T11:13:02;98053.53;;;32.69;26.26
55066;BME280;40964;42.114;24.220;2023-08-12T11:18:06;98048.75;;;32.47;26.92
55066;BME280;40964;42.114;24.220;2023-08-12T11:20:32;98044.47;;;32.46;27.11
55066;BME280;40964;42.114;24.220;2023-08-12T11:22:58;98051.94;;;32.33;27.54
55066;BME280;40964;42.114;24.220;2023-08-12T11:25:25;98052.03;;;32.37;27.74
55066;BME280;40964;42.114;24.220;2023-08-12T11:27:51;98038.75;;;31.88;26.38
55066;BME280;40964;42.114;24.220;2023-08-12T11:30:19;98049.00;;;32.26;26.79
55066;BME280;40964;42.114;24.220;2023-08-12T11:32:46;98050.25;;;32.29;26.68
55066;BME280;40964;42.114;24.220;2023-08-12T11:35:14;98037.28;;;32.73;27.58
55066;BME280;40964;42.114;24.220;2023-08-12T11:37:41;98026.22;;;33.01;26.88
55066;BME280;40964;42.114;24.220;2023-08-12T11:40:08;98023.19;;;33.25;29.64
55066;BME280;40964;42.114;24.220;2023-08-12T11:42:35;98025.69;;;33.15;27.50
55066;BME280;40964;42.114;24.220;2023-08-12T11:45:02;98030.59;;;32.70;27.21
55066;BME280;40964;42.114;24.220;2023-08-12T11:47:28;98036.75;;;32.67;27.21
55066;BME280;40964;42.114;24.220;2023-08-12T11:49:53;98033.97;;;32.64;27.21
55066;BME280;40964;42.114;24.220;2023-08-12T11:52:19;98033.97;;;32.64;26.45
55066;BME280;40964;42.114;24.220;2023-08-12T11:54:45;98030.19;;;32.53;26.90
55066;BME280;40964;42.114;24.220;2023-08-12T11:57:10;98035.13;;;32.82;27.77
55066;BME280;40964;42.114;24.220;2023-08-12T11:59:36;98020.09;;;32.88;25.28
55066;BME280;40964;42.114;24.220;2023-08-12T12:02:02;98025.56;;;32.88;26.47
55066;BME280;40964;42.114;24.220;2023-08-12T12:04:31;98019.84;;;32.78;25.97
55066;BME280;40964;42.114;24.220;2023-08-12T12:06:56;98023.31;;;32.39;27.25
55066;BME280;40964;42.114;24.220;2023-08-12T12:09:22;98018.81;;;32.15;26.61
55066;BME280;40964;42.114;24.220;2023-08-12T12:11:52;98015.59;;;32.10;26.13
55066;BME280;40964;42.114;24.220;2023-08-12T12:14:20;98012.22;;;32.48;28.22
55066;BME280;40964;42.114;24.220;2023-08-12T12:16:47;98012.06;;;31.78;25.96
55066;BME280;40964;42.114;24.220;2023-08-12T12:19:23;98009.47;;;31.10;26.80
55066;BME280;40964;42.114;24.220;2023-08-12T12:21:52;98011.34;;;30.81;27.01
55066;BME280;40964;42.114;24.220;2023-08-12T12:24:19;98016.50;;;30.21;27.43
55066;BME280;40964;42.114;24.220;2023-08-12T12:26:46;98005.84;;;30.04;27.68
55066;BME280;40964;42.114;24.220;2023-08-12T12:29:12;98007.56;;;30.09;28.15
55066;BME280;40964;42.114;24.220;2023-08-12T12:31:40;97998.47;;;29.92;27.42
55066;BME280;40964;42.114;24.220;2023-08-12T12:34:06;97995.16;;;30.20;27.51
55066;BME280;40964;42.114;24.220;2023-08-12T12:36:37;98003.06;;;30.13;29.40
55066;BME280;40964;42.114;24.220;2023-08-12T12:39:04;98000.31;;;29.76;27.00
55066;BME280;40964;42.114;24.220;2023-08-12T12:41:30;97998.91;;;29.58;27.82
55066;BME280;40964;42.114;24.220;2023-08-12T12:43:55;97996.41;;;29.53;29.21
55066;BME280;40964;42.114;24.220;2023-08-12T12:46:21;97985.19;;;30.12;26.92
55066;BME280;40964;42.114;24.220;2023-08-12T12:48:46;97982.72;;;30.84;29.90
55066;BME280;40964;42.114;24.220;2023-08-12T12:51:12;97975.31;;;31.24;28.42
55066;BME280;40964;42.114;24.220;2023-08-12T12:53:38;97967.22;;;31.72;30.36
55066;BME280;40964;42.114;24.220;2023-08-12T12:56:05;97973.78;;;32.18;27.70
55066;BME280;40964;42.114;24.220;2023-08-12T12:58:32;97977.59;;;32.48;26.47